sensor_id;sensor_type;location;lat;lon;timestamp;pressure;altitude;pressure_sealevel;temperature;humidity
59168;BME280;44948;55.046;73.266;2022-10-19T00:02:51;100123.56;;;2.26;80.37
59168;BME280;44948;55.046;73.266;2022-10-19T00:04:33;100148.66;;;2.46;80.22
59168;BME280;44948;55.046;73.266;2022-10-19T00:06:17;100149.50;;;2.46;80.03
59168;BME280;44948;55.046;73.266;2022-10-19T00:08:00;100129.19;;;2.37;80.07
59168;BME280;44948;55.046;73.266;2022-10-19T00:09:43;100140.97;;;2.44;80.05
59168;BME280;44948;55.046;73.266;2022-10-19T00:11:27;100136.56;;;2.46;79.85
59168;BME280;44948;55.046;73.266;2022-10-19T00:13:10;100134.09;;;2.43;79.60
59168;BME280;44948;55.046;73.266;2022-10-19T00:14:52;100147.81;;;2.45;79.59
59168;BME280;44948;55.046;73.266;2022-10-19T00:16:36;100130.84;;;2.38;79.75
59168;BME280;44948;55.046;73.266;2022-10-19T00:18:19;100141.28;;;2.37;79.92
59168;BME280;44948;55.046;73.266;2022-10-19T00:20:02;100143.03;;;2.36;79.97
59168;BME280;44948;55.046;73.266;2022-10-19T00:21:44;100141.28;;;2.37;79.63
59168;BME280;44948;55.046;73.266;2022-10-19T00:23:27;100026.72;;;1.66;79.73
59168;BME280;44948;55.046;73.266;2022-10-19T00:25:09;100110.97;;;2.17;80.02
59168;BME280;44948;55.046;73.266;2022-10-19T00:26:51;100122.91;;;2.21;80.00
59168;BME280;44948;55.046;73.266;2022-10-19T00:28:34;100116.16;;;2.17;79.93
59168;BME280;44948;55.046;73.266;2022-10-19T00:30:16;100137.53;;;2.22;80.00
59168;BME280;44948;55.046;73.266;2022-10-19T00:31:59;100127.25;;;2.20;79.86
59168;BME280;44948;55.046;73.266;2022-10-19T00:33:42;100130.63;;;2.22;79.79
59168;BME280;44948;55.046;73.266;2022-10-19T00:35:27;100131.44;;;2.23;79.68
59168;BME280;44948;55.046;73.266;2022-10-19T00:37:09;100087.44;;;2.01;79.97
59168;BME280;44948;55.046;73.266;2022-10-19T00:38:53;100121.31;;;2.17;79.85
59168;BME280;44948;55.046;73.266;2022-10-19T00:40:37;100115.56;;;2.10;79.63
59168;BME280;44948;55.046;73.266;2022-10-19T00:42:20;100121.31;;;2.17;79.85
59168;BME280;44948;55.046;73.266;2022-10-19T00:45:59;100111.16;;;2.12;79.96
59168;BME280;44948;55.046;73.266;2022-10-19T00:47:42;100099.44;;;2.04;79.82
59168;BME280;44948;55.046;73.266;2022-10-19T00:49:28;100074.81;;;1.93;79.68
59168;BME280;44948;55.046;73.266;2022-10-19T00:51:14;100107.66;;;2.13;80.05
59168;BME280;44948;55.046;73.266;2022-10-19T00:52:56;100106.16;;;1.86;80.03
59168;BME280;44948;55.046;73.266;2022-10-19T00:54:41;100067.81;;;1.74;80.37
59168;BME280;44948;55.046;73.266;2022-10-19T00:56:23;100115.78;;;2.04;79.83
59168;BME280;44948;55.046;73.266;2022-10-19T00:58:06;100108.09;;;2.03;79.95
59168;BME280;44948;55.046;73.266;2022-10-19T00:59:50;100056.75;;;1.70;79.94
59168;BME280;44948;55.046;73.266;2022-10-19T01:01:35;100090.44;;;1.90;79.95
59168;BME280;44948;55.046;73.266;2022-10-19T01:03:19;100092.78;;;1.96;80.12
59168;BME280;44948;55.046;73.266;2022-10-19T01:05:01;100104.63;;;2.02;80.22
59168;BME280;44948;55.046;73.266;2022-10-19T01:06:44;100075.16;;;1.84;80.17
59168;BME280;44948;55.046;73.266;2022-10-19T01:08:27;100099.47;;;2.02;80.11
59168;BME280;44948;55.046;73.266;2022-10-19T01:10:10;100092.56;;;2.03;79.61
59168;BME280;44948;55.046;73.266;2022-10-19T01:12:05;100094.28;;;2.02;79.69
59168;BME280;44948;55.046;73.266;2022-10-19T01:14:09;100090.78;;;2.05;79.85
59168;BME280;44948;55.046;73.266;2022-10-19T01:16:06;100090.88;;;2.01;80.10
59168;BME280;44948;55.046;73.266;2022-10-19T01:18:26;100085.22;;;1.92;79.53
59168;BME280;44948;55.046;73.266;2022-10-19T01:34:41;100080.50;;;1.80;80.27
59168;BME280;44948;55.046;73.266;2022-10-19T01:40:43;100076.84;;;1.85;80.15
59168;BME280;44948;55.046;73.266;2022-10-19T01:42:32;99970.72;;;1.21;80.59
59168;BME280;44948;55.046;73.266;2022-10-19T01:44:26;100075.00;;;1.89;80.41
59168;BME280;44948;55.046;73.266;2022-10-19T01:46:49;100077.06;;;1.79;80.26
59168;BME280;44948;55.046;73.266;2022-10-19T01:48:39;100072.41;;;1.89;80.63
59168;BME280;44948;55.046;73.266;2022-10-19T01:52:43;100060.19;;;1.92;80.24
59168;BME280;44948;55.046;73.266;2022-10-19T01:54:27;100033.25;;;1.76;80.83
59168;BME280;44948;55.046;73.266;2022-10-19T01:56:12;100066.94;;;1.96;80.39
59168;BME280;44948;55.046;73.266;2022-10-19T01:58:01;100043.97;;;1.89;80.28
59168;BME280;44948;55.046;73.266;2022-10-19T01:59:44;100056.59;;;1.96;80.55
59168;BME280;44948;55.046;73.266;2022-10-19T02:01:30;100030.41;;;1.82;80.40
59168;BME280;44948;55.046;73.266;2022-10-19T02:03:16;100059.03;;;1.99;80.64
59168;BME280;44948;55.046;73.266;2022-10-19T02:05:00;100056.47;;;1.99;80.30
59168;BME280;44948;55.046;73.266;2022-10-19T02:06:44;100056.38;;;2.03;79.80
59168;BME280;44948;55.046;73.266;2022-10-19T02:08:33;99998.97;;;1.71;80.04
59168;BME280;44948;55.046;73.266;2022-10-19T02:10:19;100052.19;;;1.98;80.18
59168;BME280;44948;55.046;73.266;2022-10-19T02:12:07;100058.94;;;2.03;80.15
59168;BME280;44948;55.046;73.266;2022-10-19T02:13:55;100066.81;;;1.99;79.98
59168;BME280;44948;55.046;73.266;2022-10-19T02:15:42;100066.03;;;1.97;80.29
59168;BME280;44948;55.046;73.266;2022-10-19T02:17:32;100055.75;;;1.96;80.25
59168;BME280;44948;55.046;73.266;2022-10-19T02:19:17;100048.03;;;1.94;80.31
59168;BME280;44948;55.046;73.266;2022-10-19T02:21:02;100050.50;;;1.97;80.51
59168;BME280;44948;55.046;73.266;2022-10-19T02:22:47;100049.84;;;1.92;80.12
59168;BME280;44948;55.046;73.266;2022-10-19T02:24:30;100059.94;;;1.98;80.66
59168;BME280;44948;55.046;73.266;2022-10-19T02:26:16;100055.56;;;2.00;80.38
59168;BME280;44948;55.046;73.266;2022-10-19T02:28:00;100053.81;;;2.01;80.63
59168;BME280;44948;55.046;73.266;2022-10-19T02:29:43;100058.88;;;2.04;80.45
59168;BME280;44948;55.046;73.266;2022-10-19T02:31:29;100058.75;;;2.07;80.40
59168;BME280;44948;55.046;73.266;2022-10-19T02:33:11;100064.59;;;2.12;80.20
59168;BME280;44948;55.046;73.266;2022-10-19T02:34:53;100030.91;;;1.92;80.41
59168;BME280;44948;55.046;73.266;2022-10-19T02:36:36;100055.16;;;2.11;80.51
59168;BME280;44948;55.046;73.266;2022-10-19T02:38:20;100063.47;;;2.19;80.17
59168;BME280;44948;55.046;73.266;2022-10-19T02:40:04;100056.41;;;2.23;79.95
59168;BME280;44948;55.046;73.266;2022-10-19T02:43:49;100059.59;;;2.29;80.46
59168;BME280;44948;55.046;73.266;2022-10-19T02:45:42;100023.91;;;2.16;80.00
59168;BME280;44948;55.046;73.266;2022-10-19T02:47:30;100028.84;;;2.22;80.12
59168;BME280;44948;55.046;73.266;2022-10-19T02:49:15;100020.63;;;2.32;80.12
59168;BME280;44948;55.046;73.266;2022-10-19T02:50:58;100056.59;;;2.60;79.85
59168;BME280;44948;55.046;73.266;2022-10-19T02:52:41;100060.66;;;2.66;79.87
59168;BME280;44948;55.046;73.266;2022-10-19T02:54:24;100060.38;;;2.74;79.76
59168;BME280;44948;55.046;73.266;2022-10-19T02:56:07;100044.69;;;2.77;79.94
59168;BME280;44948;55.046;73.266;2022-10-19T02:57:50;100040.56;;;2.73;79.81
59168;BME280;44948;55.046;73.266;2022-10-19T02:59:32;100020.06;;;2.67;80.00
59168;BME280;44948;55.046;73.266;2022-10-19T03:01:15;100042.50;;;2.88;80.24
59168;BME280;44948;55.046;73.266;2022-10-19T03:02:57;100043.97;;;2.93;79.99
59168;BME280;44948;55.046;73.266;2022-10-19T03:04:39;100011.78;;;2.79;79.92
59168;BME280;44948;55.046;73.266;2022-10-19T03:06:25;100009.84;;;2.84;79.46
59168;BME280;44948;55.046;73.266;2022-10-19T03:08:07;100034.94;;;3.02;79.44
59168;BME280;44948;55.046;73.266;2022-10-19T03:09:50;100024.53;;;3.04;78.94
59168;BME280;44948;55.046;73.266;2022-10-19T03:11:32;100034.34;;;3.16;79.48
59168;BME280;44948;55.046;73.266;2022-10-19T03:13:14;100032.06;;;3.29;79.11
59168;BME280;44948;55.046;73.266;2022-10-19T03:14:57;100033.34;;;3.39;79.30
59168;BME280;44948;55.046;73.266;2022-10-19T03:16:39;100012.78;;;3.34;79.58
59168;BME280;44948;55.046;73.266;2022-10-19T03:18:22;100035.56;;;3.65;79.03
59168;BME280;44948;55.046;73.266;2022-10-19T03:20:05;100028.16;;;3.76;79.42
59168;BME280;44948;55.046;73.266;2022-10-19T03:21:47;100039.16;;;3.81;79.04
59168;BME280;44948;55.046;73.266;2022-10-19T03:23:29;100024.16;;;3.88;78.99
59168;BME280;44948;55.046;73.266;2022-10-19T03:25:12;100027.44;;;3.92;78.24
59168;BME280;44948;55.046;73.266;2022-10-19T03:26:54;100021.19;;;3.96;78.65
59168;BME280;44948;55.046;73.266;2022-10-19T03:28:36;100020.25;;;3.97;78.80
59168;BME280;44948;55.046;73.266;2022-10-19T03:30:19;100018.44;;;3.99;77.96
59168;BME280;44948;55.046;73.266;2022-10-19T03:32:02;100019.97;;;4.03;78.56
59168;BME280;44948;55.046;73.266;2022-10-19T03:33:44;100019.97;;;4.03;78.80
59168;BME280;44948;55.046;73.266;2022-10-19T03:35:27;100022.50;;;4.04;78.31
59168;BME280;44948;55.046;73.266;2022-10-19T03:37:09;100016.31;;;4.07;78.03
59168;BME280;44948;55.046;73.266;2022-10-19T03:38:56;100012.66;;;4.11;77.37
59168;BME280;44948;55.046;73.266;2022-10-19T03:40:40;100013.34;;;4.14;77.67
59168;BME280;44948;55.046;73.266;2022-10-19T03:42:24;100003.97;;;4.12;78.01
59168;BME280;44948;55.046;73.266;2022-10-19T03:44:10;100008.75;;;4.20;78.41
59168;BME280;44948;55.046;73.266;2022-10-19T03:45:52;100001.69;;;4.23;78.22
59168;BME280;44948;55.046;73.266;2022-10-19T03:47:35;100012.91;;;4.24;77.71
59168;BME280;44948;55.046;73.266;2022-10-19T03:49:17;99973.13;;;4.06;77.97
59168;BME280;44948;55.046;73.266;2022-10-19T03:51:07;100005.88;;;4.26;77.76
59168;BME280;44948;55.046;73.266;2022-10-19T03:52:49;100000.47;;;4.30;77.84
59168;BME280;44948;55.046;73.266;2022-10-19T03:54:32;99971.81;;;4.14;77.91
59168;BME280;44948;55.046;73.266;2022-10-19T03:56:20;99988.47;;;4.28;77.55
59168;BME280;44948;55.046;73.266;2022-10-19T03:58:02;99994.03;;;4.37;77.66
59168;BME280;44948;55.046;73.266;2022-10-19T03:59:45;99993.00;;;4.41;77.73
59168;BME280;44948;55.046;73.266;2022-10-19T04:01:36;99988.31;;;4.48;77.26
59168;BME280;44948;55.046;73.266;2022-10-19T04:03:19;99976.19;;;4.49;77.03
59168;BME280;44948;55.046;73.266;2022-10-19T04:05:01;99977.56;;;4.56;77.09
59168;BME280;44948;55.046;73.266;2022-10-19T04:06:47;99973.28;;;4.55;76.69
59168;BME280;44948;55.046;73.266;2022-10-19T04:08:30;99941.66;;;4.47;76.55
59168;BME280;44948;55.046;73.266;2022-10-19T04:10:13;99971.22;;;4.61;76.83
59168;BME280;44948;55.046;73.266;2022-10-19T04:11:55;99976.75;;;4.71;76.99
59168;BME280;44948;55.046;73.266;2022-10-19T04:13:38;99987.78;;;4.76;76.67
59168;BME280;44948;55.046;73.266;2022-10-19T04:15:21;99971.25;;;4.77;76.30
59168;BME280;44948;55.046;73.266;2022-10-19T04:17:04;99978.19;;;4.43;76.68
59168;BME280;44948;55.046;73.266;2022-10-19T04:18:46;99980.75;;;4.61;76.67
59168;BME280;44948;55.046;73.266;2022-10-19T04:20:29;99983.78;;;4.69;76.84
59168;BME280;44948;55.046;73.266;2022-10-19T04:22:11;99988.03;;;4.71;76.36
59168;BME280;44948;55.046;73.266;2022-10-19T04:23:58;99985.34;;;4.73;76.38
59168;BME280;44948;55.046;73.266;2022-10-19T04:25:41;99987.03;;;4.74;76.04
59168;BME280;44948;55.046;73.266;2022-10-19T04:27:23;99983.66;;;4.72;76.06
59168;BME280;44948;55.046;73.266;2022-10-19T04:29:06;99893.88;;;4.16;75.43
59168;BME280;44948;55.046;73.266;2022-10-19T04:30:48;99977.69;;;4.70;75.77
59168;BME280;44948;55.046;73.266;2022-10-19T04:32:30;99977.00;;;4.66;75.75
59168;BME280;44948;55.046;73.266;2022-10-19T04:34:13;99979.75;;;4.63;75.51
59168;BME280;44948;55.046;73.266;2022-10-19T04:35:59;99971.81;;;4.66;75.42
59168;BME280;44948;55.046;73.266;2022-10-19T04:37:42;99971.72;;;4.68;75.57
59168;BME280;44948;55.046;73.266;2022-10-19T04:39:24;99968.97;;;4.71;75.02
59168;BME280;44948;55.046;73.266;2022-10-19T04:41:11;99966.22;;;4.74;75.32
59168;BME280;44948;55.046;73.266;2022-10-19T04:42:54;99971.44;;;4.74;75.39
59168;BME280;44948;55.046;73.266;2022-10-19T04:44:36;99967.75;;;4.78;75.14
59168;BME280;44948;55.046;73.266;2022-10-19T04:46:19;99969.25;;;4.82;75.46
59168;BME280;44948;55.046;73.266;2022-10-19T04:48:02;99937.13;;;4.67;75.13
59168;BME280;44948;55.046;73.266;2022-10-19T04:49:44;99955.69;;;4.77;74.69
59168;BME280;44948;55.046;73.266;2022-10-19T04:51:27;99964.22;;;4.79;75.24
59168;BME280;44948;55.046;73.266;2022-10-19T04:53:10;99967.81;;;4.77;75.20
59168;BME280;44948;55.046;73.266;2022-10-19T04:54:52;99978.66;;;4.85;74.81
59168;BME280;44948;55.046;73.266;2022-10-19T04:56:35;99966.41;;;4.87;75.19
59168;BME280;44948;55.046;73.266;2022-10-19T04:58:17;99972.25;;;4.92;74.40
59168;BME280;44948;55.046;73.266;2022-10-19T05:00:00;99972.94;;;4.95;74.66
59168;BME280;44948;55.046;73.266;2022-10-19T05:01:42;99970.50;;;4.92;74.35
59168;BME280;44948;55.046;73.266;2022-10-19T05:03:25;99963.31;;;4.97;74.85
59168;BME280;44948;55.046;73.266;2022-10-19T05:05:07;99966.56;;;5.01;74.39
59168;BME280;44948;55.046;73.266;2022-10-19T05:06:50;99963.81;;;5.04;74.80
59168;BME280;44948;55.046;73.266;2022-10-19T05:08:33;99959.44;;;5.04;74.02
59168;BME280;44948;55.046;73.266;2022-10-19T05:10:15;99944.94;;;5.00;74.44
59168;BME280;44948;55.046;73.266;2022-10-19T05:11:58;99968.78;;;5.09;74.70
59168;BME280;44948;55.046;73.266;2022-10-19T05:13:43;99956.72;;;5.08;74.37
59168;BME280;44948;55.046;73.266;2022-10-19T05:15:26;99956.50;;;4.78;74.60
59168;BME280;44948;55.046;73.266;2022-10-19T05:17:08;99957.19;;;4.98;74.88
59168;BME280;44948;55.046;73.266;2022-10-19T05:18:54;99954.09;;;5.08;74.58
59168;BME280;44948;55.046;73.266;2022-10-19T05:20:37;99959.63;;;5.17;73.80
59168;BME280;44948;55.046;73.266;2022-10-19T05:22:20;99953.44;;;5.20;73.78
59168;BME280;44948;55.046;73.266;2022-10-19T05:24:03;99955.56;;;5.29;73.17
59168;BME280;44948;55.046;73.266;2022-10-19T05:25:45;99954.44;;;5.33;73.80
59168;BME280;44948;55.046;73.266;2022-10-19T05:27:28;99952.28;;;5.41;73.09
59168;BME280;44948;55.046;73.266;2022-10-19T05:29:11;99943.88;;;5.36;72.51
59168;BME280;44948;55.046;73.266;2022-10-19T05:30:54;99941.06;;;5.41;72.90
59168;BME280;44948;55.046;73.266;2022-10-19T05:32:37;99944.31;;;5.44;72.95
59168;BME280;44948;55.046;73.266;2022-10-19T05:34:19;99946.41;;;5.53;72.65
59168;BME280;44948;55.046;73.266;2022-10-19T05:36:20;99937.25;;;5.46;72.42
59168;BME280;44948;55.046;73.266;2022-10-19T05:38:06;99936.69;;;5.41;71.60
59168;BME280;44948;55.046;73.266;2022-10-19T05:39:48;99939.59;;;5.51;71.81
59168;BME280;44948;55.046;73.266;2022-10-19T05:41:31;99926.75;;;5.63;72.19
59168;BME280;44948;55.046;73.266;2022-10-19T05:43:13;99939.34;;;5.71;72.49
59168;BME280;44948;55.046;73.266;2022-10-19T05:44:55;99925.72;;;5.82;72.23
59168;BME280;44948;55.046;73.266;2022-10-19T05:46:38;99921.78;;;5.90;71.75
59168;BME280;44948;55.046;73.266;2022-10-19T05:48:20;99925.03;;;5.94;70.84
59168;BME280;44948;55.046;73.266;2022-10-19T05:50:03;99918.44;;;6.03;71.52
59168;BME280;44948;55.046;73.266;2022-10-19T05:51:46;99926.03;;;6.07;70.88
59168;BME280;44948;55.046;73.266;2022-10-19T05:53:29;99924.34;;;6.06;70.84
59168;BME280;44948;55.046;73.266;2022-10-19T05:55:11;99917.66;;;6.16;70.47
59168;BME280;44948;55.046;73.266;2022-10-19T05:56:53;99888.84;;;6.19;70.35
59168;BME280;44948;55.046;73.266;2022-10-19T05:58:36;99910.38;;;6.51;69.76
59168;BME280;44948;55.046;73.266;2022-10-19T06:00:18;99903.41;;;6.66;68.76
59168;BME280;44948;55.046;73.266;2022-10-19T06:02:00;99903.41;;;6.80;68.68
59168;BME280;44948;55.046;73.266;2022-10-19T06:03:43;99888.25;;;6.73;68.46
59168;BME280;44948;55.046;73.266;2022-10-19T06:05:25;99897.06;;;6.84;68.45
59168;BME280;44948;55.046;73.266;2022-10-19T06:07:10;99892.78;;;6.98;68.45
59168;BME280;44948;55.046;73.266;2022-10-19T06:08:54;99901.53;;;7.11;67.72
59168;BME280;44948;55.046;73.266;2022-10-19T06:10:37;99907.69;;;7.10;67.43
59168;BME280;44948;55.046;73.266;2022-10-19T06:12:25;99901.22;;;7.15;66.92
59168;BME280;44948;55.046;73.266;2022-10-19T06:14:11;99899.25;;;7.19;67.14
59168;BME280;44948;55.046;73.266;2022-10-19T06:15:54;99894.88;;;7.20;66.45
59168;BME280;44948;55.046;73.266;2022-10-19T06:17:36;99883.91;;;7.14;65.75
59168;BME280;44948;55.046;73.266;2022-10-19T06:19:18;99861.66;;;7.09;65.45
59168;BME280;44948;55.046;73.266;2022-10-19T06:21:09;99884.00;;;7.27;65.55
59168;BME280;44948;55.046;73.266;2022-10-19T06:22:51;99873.56;;;7.13;65.24
59168;BME280;44948;55.046;73.266;2022-10-19T06:24:34;99882.59;;;7.22;65.95
59168;BME280;44948;55.046;73.266;2022-10-19T06:26:20;99888.09;;;7.17;65.47
59168;BME280;44948;55.046;73.266;2022-10-19T06:28:05;99887.72;;;7.23;64.50
59168;BME280;44948;55.046;73.266;2022-10-19T06:29:47;99854.94;;;7.05;64.39
59168;BME280;44948;55.046;73.266;2022-10-19T06:31:33;99892.84;;;7.25;64.44
59168;BME280;44948;55.046;73.266;2022-10-19T06:33:15;99881.66;;;7.23;64.12
59168;BME280;44948;55.046;73.266;2022-10-19T06:34:58;99883.25;;;7.25;65.03
59168;BME280;44948;55.046;73.266;2022-10-19T06:36:40;99878.13;;;7.24;63.93
59168;BME280;44948;55.046;73.266;2022-10-19T06:38:23;99882.31;;;7.26;64.49
59168;BME280;44948;55.046;73.266;2022-10-19T06:40:05;99877.72;;;7.30;63.88
59168;BME280;44948;55.046;73.266;2022-10-19T06:41:48;99880.75;;;7.24;63.19
59168;BME280;44948;55.046;73.266;2022-10-19T06:43:34;99866.88;;;7.09;62.85
59168;BME280;44948;55.046;73.266;2022-10-19T06:45:17;99880.47;;;7.14;63.03
59168;BME280;44948;55.046;73.266;2022-10-19T06:46:59;99847.53;;;6.99;63.68
59168;BME280;44948;55.046;73.266;2022-10-19T06:48:42;99870.53;;;7.06;62.06
59168;BME280;44948;55.046;73.266;2022-10-19T06:50:24;99869.41;;;7.10;63.20
59168;BME280;44948;55.046;73.266;2022-10-19T06:52:07;99864.09;;;7.12;63.20
59168;BME280;44948;55.046;73.266;2022-10-19T06:53:51;99859.72;;;7.12;63.13
59168;BME280;44948;55.046;73.266;2022-10-19T06:55:33;99864.44;;;7.06;61.91
59168;BME280;44948;55.046;73.266;2022-10-19T06:57:17;99853.69;;;6.98;61.85
59168;BME280;44948;55.046;73.266;2022-10-19T06:58:59;99856.63;;;7.06;62.48
59168;BME280;44948;55.046;73.266;2022-10-19T07:00:41;99828.53;;;6.97;62.31
59168;BME280;44948;55.046;73.266;2022-10-19T07:02:24;99858.66;;;7.15;62.48
59168;BME280;44948;55.046;73.266;2022-10-19T07:04:06;99850.31;;;7.10;60.95
59168;BME280;44948;55.046;73.266;2022-10-19T07:05:55;99848.22;;;7.15;61.60
59168;BME280;44948;55.046;73.266;2022-10-19T07:07:40;99848.88;;;7.19;62.02
59168;BME280;44948;55.046;73.266;2022-10-19T07:09:23;99820.63;;;6.98;61.11
59168;BME280;44948;55.046;73.266;2022-10-19T07:11:08;99850.28;;;7.24;61.61
59168;BME280;44948;55.046;73.266;2022-10-19T07:12:55;99831.44;;;7.19;61.30
59168;BME280;44948;55.046;73.266;2022-10-19T07:14:37;99844.28;;;7.22;60.37
59168;BME280;44948;55.046;73.266;2022-10-19T07:16:21;99839.28;;;7.19;60.15
59168;BME280;44948;55.046;73.266;2022-10-19T07:18:03;99844.28;;;7.22;60.85
59168;BME280;44948;55.046;73.266;2022-10-19T07:19:46;99845.53;;;7.17;60.46
59168;BME280;44948;55.046;73.266;2022-10-19T07:21:30;99833.31;;;7.17;60.59
59168;BME280;44948;55.046;73.266;2022-10-19T07:23:13;99831.66;;;7.16;60.12
59168;BME280;44948;55.046;73.266;2022-10-19T07:24:57;99825.84;;;6.98;59.78
59168;BME280;44948;55.046;73.266;2022-10-19T07:26:40;99828.59;;;7.09;60.41
59168;BME280;44948;55.046;73.266;2022-10-19T07:28:22;99834.47;;;7.13;60.00
59168;BME280;44948;55.046;73.266;2022-10-19T07:30:05;99803.94;;;7.01;60.68
59168;BME280;44948;55.046;73.266;2022-10-19T07:31:47;99830.41;;;7.22;60.43
59168;BME280;44948;55.046;73.266;2022-10-19T07:33:30;99821.94;;;7.18;59.28
59168;BME280;44948;55.046;73.266;2022-10-19T07:35:13;99819.44;;;7.17;58.47
59168;BME280;44948;55.046;73.266;2022-10-19T07:36:55;99815.06;;;7.17;59.55
59168;BME280;44948;55.046;73.266;2022-10-19T07:38:38;99794.81;;;7.08;59.64
59168;BME280;44948;55.046;73.266;2022-10-19T07:40:21;99807.59;;;7.25;59.66
59168;BME280;44948;55.046;73.266;2022-10-19T07:42:04;99813.34;;;7.30;58.70
59168;BME280;44948;55.046;73.266;2022-10-19T07:43:49;99817.63;;;7.31;58.70
59168;BME280;44948;55.046;73.266;2022-10-19T07:45:32;99818.56;;;7.30;58.37
59168;BME280;44948;55.046;73.266;2022-10-19T07:47:14;99754.81;;;6.95;58.71
59168;BME280;44948;55.046;73.266;2022-10-19T07:48:57;99800.09;;;7.33;58.51
59168;BME280;44948;55.046;73.266;2022-10-19T07:50:39;99812.88;;;7.38;57.92
59168;BME280;44948;55.046;73.266;2022-10-19T07:52:21;99801.97;;;7.31;58.69
59168;BME280;44948;55.046;73.266;2022-10-19T07:54:05;99803.97;;;7.28;57.66
59168;BME280;44948;55.046;73.266;2022-10-19T07:55:47;99790.84;;;7.15;57.84
59168;BME280;44948;55.046;73.266;2022-10-19T07:57:30;99800.88;;;7.21;58.99
59168;BME280;44948;55.046;73.266;2022-10-19T07:59:12;99792.97;;;7.23;59.36
59168;BME280;44948;55.046;73.266;2022-10-19T08:01:17;99768.47;;;6.98;58.59
59168;BME280;44948;55.046;73.266;2022-10-19T08:02:59;99796.72;;;7.19;58.20
59168;BME280;44948;55.046;73.266;2022-10-19T08:04:42;99748.03;;;6.92;57.40
59168;BME280;44948;55.046;73.266;2022-10-19T08:06:26;99778.56;;;7.17;57.52
59168;BME280;44948;55.046;73.266;2022-10-19T08:08:09;99784.97;;;7.26;57.09
59168;BME280;44948;55.046;73.266;2022-10-19T08:09:51;99743.34;;;6.97;56.53
59168;BME280;44948;55.046;73.266;2022-10-19T08:11:34;99784.88;;;7.27;57.35
59168;BME280;44948;55.046;73.266;2022-10-19T08:13:17;99778.13;;;7.37;56.27
59168;BME280;44948;55.046;73.266;2022-10-19T08:14:59;99780.34;;;7.43;55.56
59168;BME280;44948;55.046;73.266;2022-10-19T08:16:44;99773.63;;;7.39;55.40
59168;BME280;44948;55.046;73.266;2022-10-19T08:18:27;99779.94;;;7.50;56.07
59168;BME280;44948;55.046;73.266;2022-10-19T08:20:09;99770.84;;;7.55;56.19
59168;BME280;44948;55.046;73.266;2022-10-19T08:21:52;99761.66;;;7.50;55.91
59168;BME280;44948;55.046;73.266;2022-10-19T08:23:34;99750.09;;;7.54;56.57
59168;BME280;44948;55.046;73.266;2022-10-19T08:25:17;99774.44;;;7.67;55.54
59168;BME280;44948;55.046;73.266;2022-10-19T08:26:59;99761.91;;;7.72;55.40
59168;BME280;44948;55.046;73.266;2022-10-19T08:28:43;99760.56;;;7.66;55.72
59168;BME280;44948;55.046;73.266;2022-10-19T08:30:26;99766.19;;;7.73;55.94
59168;BME280;44948;55.046;73.266;2022-10-19T08:32:08;99769.94;;;7.69;54.95
59168;BME280;44948;55.046;73.266;2022-10-19T08:33:51;99754.50;;;7.66;55.37
59168;BME280;44948;55.046;73.266;2022-10-19T08:35:34;99754.59;;;7.64;54.56
59168;BME280;44948;55.046;73.266;2022-10-19T08:37:17;99763.69;;;7.71;54.72
59168;BME280;44948;55.046;73.266;2022-10-19T08:39:03;99750.44;;;7.74;54.10
59168;BME280;44948;55.046;73.266;2022-10-19T08:40:46;99738.22;;;7.75;54.39
59168;BME280;44948;55.046;73.266;2022-10-19T08:49:24;99716.25;;;7.52;54.58
59168;BME280;44948;55.046;73.266;2022-10-19T08:51:11;99734.97;;;7.71;53.58
59168;BME280;44948;55.046;73.266;2022-10-19T08:53:14;99744.25;;;7.63;53.59
59168;BME280;44948;55.046;73.266;2022-10-19T08:55:06;99746.91;;;7.76;53.82
59168;BME280;44948;55.046;73.266;2022-10-19T08:57:10;99741.34;;;7.80;54.13
59168;BME280;44948;55.046;73.266;2022-10-19T08:59:11;99733.19;;;7.85;53.87
59168;BME280;44948;55.046;73.266;2022-10-19T09:01:02;99716.41;;;7.76;52.68
59168;BME280;44948;55.046;73.266;2022-10-19T09:03:10;99725.19;;;7.75;53.56
59168;BME280;44948;55.046;73.266;2022-10-19T09:05:02;99724.25;;;7.76;52.90
59168;BME280;44948;55.046;73.266;2022-10-19T09:08:52;99721.31;;;7.81;52.65
59168;BME280;44948;55.046;73.266;2022-10-19T09:10:40;99719.94;;;7.88;52.66
59168;BME280;44948;55.046;73.266;2022-10-19T09:12:55;99696.66;;;7.72;53.32
59168;BME280;44948;55.046;73.266;2022-10-19T09:14:57;99706.47;;;7.81;53.49
59168;BME280;44948;55.046;73.266;2022-10-19T09:16:41;99719.53;;;7.81;52.12
59168;BME280;44948;55.046;73.266;2022-10-19T09:18:32;99722.75;;;7.85;53.43
59168;BME280;44948;55.046;73.266;2022-10-19T09:20:22;99721.09;;;7.84;53.37
59168;BME280;44948;55.046;73.266;2022-10-19T09:22:28;99715.47;;;7.77;53.45
59168;BME280;44948;55.046;73.266;2022-10-19T09:26:50;99720.25;;;7.58;53.63
59168;BME280;44948;55.046;73.266;2022-10-19T09:28:53;99699.03;;;7.50;53.50
59168;BME280;44948;55.046;73.266;2022-10-19T09:30:38;99710.00;;;7.55;53.99
59168;BME280;44948;55.046;73.266;2022-10-19T09:32:34;99717.53;;;7.59;53.37
59168;BME280;44948;55.046;73.266;2022-10-19T09:34:24;99702.06;;;7.56;53.07
59168;BME280;44948;55.046;73.266;2022-10-19T09:36:08;99710.56;;;7.60;53.96
59168;BME280;44948;55.046;73.266;2022-10-19T09:37:50;99702.63;;;7.22;53.89
59168;BME280;44948;55.046;73.266;2022-10-19T09:39:33;99710.84;;;7.42;54.04
59168;BME280;44948;55.046;73.266;2022-10-19T09:41:20;99716.78;;;7.44;53.91
59168;BME280;44948;55.046;73.266;2022-10-19T09:43:07;99702.81;;;7.46;53.88
59168;BME280;44948;55.046;73.266;2022-10-19T09:45:33;99689.06;;;7.29;53.79
59168;BME280;44948;55.046;73.266;2022-10-19T09:47:33;99717.31;;;7.50;53.87
59168;BME280;44948;55.046;73.266;2022-10-19T09:49:16;99708.97;;;7.44;53.94
59168;BME280;44948;55.046;73.266;2022-10-19T09:51:00;99709.38;;;7.51;53.93
59168;BME280;44948;55.046;73.266;2022-10-19T09:52:48;99706.66;;;7.53;54.22